Time;durP1;ratioP1;P1;durP2;ratioP2;P2;SDS_P1;SDS_P2;PMS_P1;PMS_P2;Temp;Humidity;BMP_temperature;BMP_pressure;BME280_temperature;BME280_humidity;BME280_pressure;Samples;Min_cycle;Max_cycle;Signal;HPM_P1;HPM_P2
2023/01/31 00:00:43;;;;;;;12.95;2.42;;;3.20;95.00;;;;;;5030552;28;20528;-69
2023/01/31 00:03:09;;;;;;;17.13;2.67;;;3.30;94.40;;;;;;5027548;28;20037;-69
2023/01/31 00:05:34;;;;;;;17.27;2.53;;;3.40;94.10;;;;;;5030803;28;20433;-69
2023/01/31 00:08:00;;;;;;;20.83;2.53;;;3.20;94.10;;;;;;5026573;28;20048;-67
2023/01/31 00:10:26;;;;;;;16.70;2.47;;;3.20;94.00;;;;;;5033874;28;20025;-68
2023/01/31 00:12:51;;;;;;;20.30;3.00;;;3.10;94.20;;;;;;5021368;28;20029;-68
2023/01/31 00:15:18;;;;;;;18.65;2.60;;;3.20;93.90;;;;;;5034998;28;20429;-68
2023/01/31 00:17:43;;;;;;;14.98;2.42;;;3.10;93.90;;;;;;5036359;28;20866;-68
2023/01/31 00:20:10;;;;;;;14.85;2.03;;;3.20;93.70;;;;;;5030640;28;20029;-68
2023/01/31 00:22:36;;;;;;;17.67;2.45;;;3.20;93.70;;;;;;5025151;28;20053;-69
2023/01/31 00:25:02;;;;;;;13.80;1.98;;;3.10;93.80;;;;;;5033580;28;20033;-68
2023/01/31 00:27:27;;;;;;;8.15;1.77;;;3.10;93.40;;;;;;5024591;28;20029;-69
2023/01/31 00:29:53;;;;;;;13.90;2.20;;;3.10;93.40;;;;;;5023793;28;20044;-68
2023/01/31 00:32:18;;;;;;;14.90;2.45;;;3.10;93.60;;;;;;5024014;28;20025;-69
2023/01/31 00:34:44;;;;;;;15.65;1.98;;;3.10;93.40;;;;;;5022362;28;20041;-68
2023/01/31 00:37:09;;;;;;;9.48;1.80;;;3.00;93.50;;;;;;5022786;28;20108;-69
2023/01/31 00:39:35;;;;;;;8.60;1.73;;;2.90;93.70;;;;;;5030809;28;20025;-68
2023/01/31 00:42:00;;;;;;;16.20;2.67;;;2.90;93.60;;;;;;5030239;28;20033;-68
2023/01/31 00:44:26;;;;;;;17.70;2.10;;;2.90;93.80;;;;;;5023016;28;20048;-68
2023/01/31 00:46:51;;;;;;;10.40;1.83;;;2.70;94.30;;;;;;5020824;28;20414;-69
2023/01/31 00:49:17;;;;;;;20.35;2.78;;;2.60;94.50;;;;;;5028146;28;20041;-68
2023/01/31 00:51:43;;;;;;;17.02;2.10;;;2.70;94.50;;;;;;5027652;28;20039;-69
2023/01/31 00:54:09;;;;;;;14.25;2.22;;;2.70;94.30;;;;;;5027984;28;20454;-68
2023/01/31 00:56:36;;;;;;;18.52;3.08;;;2.70;94.50;;;;;;5025670;28;20068;-67
2023/01/31 00:59:03;;;;;;;16.90;2.75;;;2.70;94.40;;;;;;5025981;28;20124;-69
2023/01/31 01:01:28;;;;;;;16.20;2.63;;;2.80;94.30;;;;;;5028754;28;20104;-67
2023/01/31 01:03:56;;;;;;;15.48;2.58;;;2.90;93.90;;;;;;5031742;28;20607;-70
2023/01/31 01:06:22;;;;;;;19.05;2.45;;;2.90;93.90;;;;;;5019845;28;20042;-68
2023/01/31 01:08:48;;;;;;;18.40;3.03;;;3.00;93.80;;;;;;5022905;28;21766;-68
2023/01/31 01:11:16;;;;;;;15.00;2.92;;;3.00;93.50;;;;;;5027582;28;20091;-68
2023/01/31 01:13:43;;;;;;;18.88;2.90;;;3.10;93.40;;;;;;5025541;28;20496;-68
2023/01/31 01:16:17;;;;;;;17.00;2.45;;;3.10;93.10;;;;;;5030181;28;20029;-68
2023/01/31 01:18:45;;;;;;;22.23;2.95;;;3.10;93.00;;;;;;5027037;28;20479;-68
2023/01/31 01:21:14;;;;;;;14.40;2.00;;;3.10;93.20;;;;;;5022556;28;20041;-70
2023/01/31 01:23:40;;;;;;;10.73;2.30;;;3.20;93.00;;;;;;5021866;28;20049;-68
2023/01/31 01:26:13;;;;;;;14.68;1.52;;;3.20;93.60;;;;;;5029625;28;20133;-68
2023/01/31 01:28:38;;;;;;;8.43;1.90;;;3.30;93.80;;;;;;5028808;28;20056;-68
2023/01/31 01:31:06;;;;;;;10.30;1.83;;;3.20;94.40;;;;;;5029806;28;20052;-68
2023/01/31 01:33:31;;;;;;;15.23;2.63;;;3.10;94.70;;;;;;5026925;28;20025;-68
2023/01/31 01:36:01;;;;;;;15.10;2.25;;;3.10;95.10;;;;;;5018032;28;20056;-67
2023/01/31 01:38:27;;;;;;;18.85;2.58;;;3.10;95.20;;;;;;5026834;28;20348;-68
2023/01/31 01:40:52;;;;;;;12.50;1.98;;;3.10;95.30;;;;;;5032403;28;20060;-68
2023/01/31 01:43:17;;;;;;;17.50;2.38;;;3.00;95.60;;;;;;5025134;28;20108;-68
2023/01/31 01:45:43;;;;;;;17.95;2.17;;;3.00;95.60;;;;;;5024778;28;20060;-70
2023/01/31 01:48:15;;;;;;;13.75;2.17;;;3.00;95.80;;;;;;5023281;28;20022;-68
2023/01/31 01:50:46;;;;;;;13.60;1.77;;;3.00;95.80;;;;;;5025600;28;20124;-69
2023/01/31 01:53:19;;;;;;;17.10;2.10;;;3.00;96.00;;;;;;5021534;28;20025;-68
2023/01/31 01:55:56;;;;;;;17.55;2.15;;;2.90;96.20;;;;;;5021199;28;20508;-68
2023/01/31 01:58:35;;;;;;;11.05;1.90;;;2.90;96.40;;;;;;5024006;28;20021;-68
2023/01/31 02:01:04;;;;;;;15.60;2.53;;;2.90;96.60;;;;;;5028183;28;20033;-68
2023/01/31 02:03:30;;;;;;;14.00;2.45;;;2.90;96.70;;;;;;5023445;28;20033;-68
2023/01/31 02:05:59;;;;;;;13.35;2.15;;;2.80;96.90;;;;;;5026822;28;20303;-68
2023/01/31 02:08:27;;;;;;;15.85;2.40;;;2.80;97.00;;;;;;5022263;28;20677;-68
2023/01/31 02:11:21;;;;;;;12.45;1.92;;;2.70;97.20;;;;;;5022296;28;20523;-68
2023/01/31 02:13:50;;;;;;;12.60;1.60;;;2.70;97.40;;;;;;5025866;28;20462;-69
2023/01/31 02:16:15;;;;;;;17.90;2.55;;;2.70;97.50;;;;;;5030413;28;20116;-69
2023/01/31 02:18:42;;;;;;;12.52;2.55;;;2.80;97.60;;;;;;5021226;28;20108;-68
2023/01/31 02:21:41;;;;;;;19.88;3.10;;;2.80;97.70;;;;;;5018740;28;20053;-69
2023/01/31 02:24:26;;;;;;;15.60;2.80;;;2.80;97.90;;;;;;5021405;28;20677;-68
2023/01/31 02:27:33;;;;;;;17.48;2.35;;;2.80;97.80;;;;;;5021426;28;20094;-68
2023/01/31 02:30:17;;;;;;;11.43;2.20;;;2.80;97.80;;;;;;5026291;28;20139;-68
2023/01/31 02:33:13;;;;;;;16.90;2.63;;;2.70;97.90;;;;;;5022216;28;20040;-67
2023/01/31 02:35:39;;;;;;;23.10;2.50;;;2.70;98.00;;;;;;5021837;28;20068;-70
2023/01/31 02:38:23;;;;;;;13.32;2.30;;;2.70;98.20;;;;;;5025571;28;20045;-69
2023/01/31 02:41:04;;;;;;;17.92;2.45;;;2.70;98.20;;;;;;5022238;28;20501;-68
2023/01/31 02:47:01;;;;;;;15.93;3.00;;;2.80;98.20;;;;;;5022833;28;20054;-68
2023/01/31 02:49:38;;;;;;;15.07;2.55;;;2.70;98.00;;;;;;5030355;28;20284;-67
2023/01/31 02:52:18;;;;;;;19.38;2.92;;;2.70;98.00;;;;;;5030214;28;20398;-69
2023/01/31 02:57:41;;;;;;;14.52;2.45;;;2.60;97.90;;;;;;5025712;28;20044;-68
2023/01/31 03:00:08;;;;;;;19.13;3.40;;;2.50;98.00;;;;;;5031241;28;20465;-68
2023/01/31 03:02:34;;;;;;;14.63;2.30;;;2.40;98.00;;;;;;5033921;28;20041;-68
2023/01/31 03:04:59;;;;;;;19.50;2.22;;;2.40;98.10;;;;;;5028278;28;20042;-68
2023/01/31 03:07:32;;;;;;;12.32;2.67;;;2.30;98.10;;;;;;5028533;28;20040;-68
2023/01/31 03:10:19;;;;;;;17.92;2.63;;;2.30;98.10;;;;;;5027633;28;20049;-68
2023/01/31 03:13:28;;;;;;;14.98;2.58;;;2.40;98.10;;;;;;5025719;28;20545;-68
2023/01/31 03:19:03;;;;;;;19.63;2.63;;;2.60;98.00;;;;;;5029662;28;20060;-69
2023/01/31 03:22:04;;;;;;;12.07;2.10;;;2.70;98.10;;;;;;5027520;28;20038;-68
2023/01/31 03:24:30;;;;;;;18.95;2.33;;;2.80;98.00;;;;;;5031378;28;20052;-68
2023/01/31 03:26:58;;;;;;;19.60;2.80;;;2.80;97.80;;;;;;5025670;28;20444;-68
2023/01/31 03:29:26;;;;;;;15.95;2.35;;;2.90;97.70;;;;;;5027895;28;20036;-68
2023/01/31 03:31:59;;;;;;;22.02;1.98;;;3.00;97.70;;;;;;5030261;28;20075;-68
2023/01/31 03:34:26;;;;;;;26.13;2.97;;;3.00;97.70;;;;;;5026933;28;20033;-68
2023/01/31 03:37:14;;;;;;;19.02;2.45;;;3.10;97.70;;;;;;5024745;28;20045;-68
2023/01/31 03:39:53;;;;;;;22.70;3.05;;;3.00;97.60;;;;;;5018282;28;20528;-68
2023/01/31 03:42:27;;;;;;;11.65;2.42;;;3.10;97.60;;;;;;5024550;28;20517;-70
2023/01/31 03:45:03;;;;;;;18.67;2.42;;;3.00;97.70;;;;;;5029261;28;20041;-68
2023/01/31 03:47:35;;;;;;;16.27;2.03;;;3.10;97.80;;;;;;5020509;28;20478;-68
2023/01/31 03:50:07;;;;;;;15.20;2.30;;;3.10;98.00;;;;;;5030908;28;20472;-68
2023/01/31 03:52:39;;;;;;;15.20;1.98;;;3.10;98.10;;;;;;5023457;28;20038;-68
2023/01/31 03:55:13;;;;;;;12.10;2.22;;;3.10;98.30;;;;;;5030610;28;20401;-68
2023/01/31 03:57:42;;;;;;;25.05;3.55;;;3.10;98.40;;;;;;5019965;28;20029;-68
2023/01/31 04:00:12;;;;;;;15.13;2.38;;;3.10;98.50;;;;;;5035230;28;20063;-69
2023/01/31 04:02:40;;;;;;;17.00;2.80;;;3.10;98.50;;;;;;5035604;28;20079;-68
2023/01/31 04:05:09;;;;;;;14.05;2.03;;;3.10;98.60;;;;;;5023127;28;20038;-68
2023/01/31 04:07:35;;;;;;;15.63;2.13;;;3.10;98.70;;;;;;5025178;28;20079;-69
2023/01/31 04:10:03;;;;;;;16.58;2.80;;;3.10;98.80;;;;;;5025702;28;20040;-68
2023/01/31 04:12:29;;;;;;;10.48;2.00;;;3.10;98.80;;;;;;5028739;28;20083;-68
2023/01/31 04:14:54;;;;;;;14.23;2.60;;;3.10;98.90;;;;;;5026490;28;20477;-69
2023/01/31 04:17:20;;;;;;;17.00;2.75;;;3.10;99.00;;;;;;5035470;28;20095;-68
2023/01/31 04:19:45;;;;;;;12.93;2.30;;;3.10;99.20;;;;;;5021598;28;20072;-70
2023/01/31 04:22:11;;;;;;;16.67;2.40;;;3.10;99.20;;;;;;5028391;28;20382;-69
2023/01/31 04:24:36;;;;;;;23.90;3.28;;;3.10;99.20;;;;;;5023880;28;20057;-68
2023/01/31 04:27:02;;;;;;;14.93;2.83;;;3.10;99.30;;;;;;5024280;28;20029;-68
2023/01/31 04:29:27;;;;;;;15.20;3.13;;;3.10;99.40;;;;;;5024025;28;20454;-68
2023/01/31 04:31:52;;;;;;;19.23;2.75;;;3.10;99.40;;;;;;5023312;28;20128;-68
2023/01/31 04:34:18;;;;;;;24.67;2.78;;;3.10;99.40;;;;;;5031992;28;20038;-68
2023/01/31 04:36:43;;;;;;;17.70;2.72;;;3.10;99.40;;;;;;5027847;28;20483;-68
2023/01/31 04:39:09;;;;;;;16.20;2.47;;;3.10;99.40;;;;;;5024219;28;20409;-69
2023/01/31 04:41:35;;;;;;;17.77;2.83;;;3.10;99.40;;;;;;5027063;28;20040;-68
2023/01/31 04:44:00;;;;;;;19.55;2.60;;;3.00;99.40;;;;;;5020414;28;20037;-69
2023/01/31 04:46:26;;;;;;;18.42;3.63;;;3.10;99.40;;;;;;5022873;28;20033;-68
2023/01/31 04:48:51;;;;;;;23.05;2.75;;;3.10;99.30;;;;;;5030555;28;20029;-68
2023/01/31 04:51:17;;;;;;;26.67;2.92;;;3.10;99.20;;;;;;5022134;28;20033;-68
2023/01/31 04:53:43;;;;;;;18.33;3.22;;;3.20;99.20;;;;;;5017880;28;20524;-68
2023/01/31 04:56:09;;;;;;;18.13;3.00;;;3.20;99.10;;;;;;5024046;28;20041;-67
2023/01/31 04:58:35;;;;;;;18.63;3.15;;;3.20;99.10;;;;;;5023121;28;20033;-68
2023/01/31 05:01:00;;;;;;;17.45;3.17;;;3.30;99.00;;;;;;5031526;28;20029;-68
2023/01/31 05:03:26;;;;;;;23.50;3.20;;;3.20;99.00;;;;;;5027254;28;20026;-68
2023/01/31 05:05:51;;;;;;;16.50;3.28;;;3.30;98.90;;;;;;5019120;28;20030;-68
2023/01/31 05:08:17;;;;;;;30.23;2.90;;;3.30;98.80;;;;;;5026356;28;20037;-68
2023/01/31 05:10:42;;;;;;;26.42;3.15;;;3.20;98.60;;;;;;5030715;28;20037;-69
2023/01/31 05:13:09;;;;;;;30.27;2.95;;;3.20;98.70;;;;;;5028950;28;20065;-68
2023/01/31 05:15:34;;;;;;;18.88;2.72;;;3.20;98.60;;;;;;5026480;28;20466;-68
2023/01/31 05:18:03;;;;;;;36.17;3.53;;;3.10;98.50;;;;;;5030735;28;20037;-68
2023/01/31 05:20:37;;;;;;;27.30;3.40;;;3.20;98.40;;;;;;5024636;28;20026;-68
2023/01/31 05:23:02;;;;;;;29.05;3.33;;;3.10;98.30;;;;;;5021102;28;20061;-69
2023/01/31 05:25:29;;;;;;;18.13;4.00;;;3.10;98.30;;;;;;5026017;28;20038;-68
2023/01/31 05:27:55;;;;;;;21.42;3.15;;;3.10;98.30;;;;;;5017957;28;20363;-68
2023/01/31 05:30:23;;;;;;;20.50;3.15;;;3.10;98.30;;;;;;5025743;28;20044;-69
2023/01/31 05:32:49;;;;;;;23.02;3.00;;;3.10;98.30;;;;;;5019133;28;20033;-70
2023/01/31 05:35:15;;;;;;;24.23;2.72;;;3.20;98.30;;;;;;5028960;28;20492;-71
2023/01/31 05:37:41;;;;;;;23.70;2.42;;;3.10;98.10;;;;;;5026431;28;20033;-71
2023/01/31 05:40:11;;;;;;;24.60;3.05;;;3.10;98.20;;;;;;5027693;28;20103;-71
2023/01/31 05:42:37;;;;;;;20.63;2.63;;;3.10;98.20;;;;;;5023716;28;20030;-70
2023/01/31 05:45:03;;;;;;;21.85;3.00;;;3.10;98.10;;;;;;5030038;28;20369;-71
2023/01/31 05:47:29;;;;;;;24.25;2.85;;;3.10;98.10;;;;;;5022289;28;20105;-70
2023/01/31 05:49:54;;;;;;;19.70;2.67;;;3.10;98.10;;;;;;5026168;28;20143;-71
2023/01/31 05:52:20;;;;;;;23.08;3.03;;;3.10;98.10;;;;;;5024476;28;20057;-71
2023/01/31 05:54:45;;;;;;;18.75;2.42;;;3.10;98.00;;;;;;5022222;28;20042;-71
2023/01/31 05:57:13;;;;;;;22.92;2.88;;;3.10;98.00;;;;;;5023879;28;20128;-70
2023/01/31 05:59:38;;;;;;;26.55;3.67;;;3.10;98.00;;;;;;5027509;28;20034;-71
2023/01/31 06:02:04;;;;;;;17.27;2.88;;;3.10;98.00;;;;;;5025683;28;20029;-71
2023/01/31 06:04:29;;;;;;;19.15;2.67;;;3.10;98.00;;;;;;5021167;28;20386;-70
2023/01/31 06:06:55;;;;;;;23.52;3.53;;;3.10;97.90;;;;;;5014243;28;20457;-70
2023/01/31 06:09:20;;;;;;;21.98;2.95;;;3.10;97.70;;;;;;5025469;28;20025;-70
2023/01/31 06:11:46;;;;;;;25.88;3.03;;;3.10;97.60;;;;;;5027460;28;20047;-70
2023/01/31 06:14:11;;;;;;;14.27;2.20;;;3.10;97.70;;;;;;5026812;28;20026;-70
2023/01/31 06:16:37;;;;;;;24.17;3.22;;;3.10;97.70;;;;;;5025388;28;20041;-70
2023/01/31 06:19:02;;;;;;;20.33;3.20;;;3.10;97.80;;;;;;5027114;28;20498;-71
2023/01/31 06:21:28;;;;;;;16.02;2.38;;;3.10;97.80;;;;;;5032335;28;20103;-71
2023/01/31 06:23:53;;;;;;;16.13;2.53;;;3.10;97.70;;;;;;5026233;28;20053;-70
2023/01/31 06:26:19;;;;;;;23.65;2.95;;;3.10;97.70;;;;;;5025612;28;20041;-71
2023/01/31 06:28:44;;;;;;;15.63;1.90;;;3.10;97.60;;;;;;5021966;28;20038;-71
2023/01/31 06:31:11;;;;;;;15.63;3.15;;;3.10;97.50;;;;;;5020436;28;20041;-70
2023/01/31 06:33:36;;;;;;;18.75;3.33;;;3.10;97.30;;;;;;5022170;28;20111;-70
2023/01/31 06:36:02;;;;;;;14.30;2.08;;;3.10;97.30;;;;;;5025427;28;20037;-70
2023/01/31 06:38:28;;;;;;;21.75;2.83;;;3.10;97.40;;;;;;5022965;28;20041;-72
2023/01/31 06:40:53;;;;;;;13.68;2.42;;;3.10;97.30;;;;;;5022255;28;20462;-72
2023/01/31 06:43:19;;;;;;;18.65;2.10;;;3.10;97.30;;;;;;5027672;28;20041;-72
2023/01/31 06:45:44;;;;;;;19.00;2.58;;;3.10;97.40;;;;;;5022054;28;20037;-72
2023/01/31 06:48:10;;;;;;;13.32;2.17;;;3.10;97.50;;;;;;5021407;28;20033;-72
2023/01/31 06:50:36;;;;;;;15.35;2.30;;;3.10;97.50;;;;;;5023210;28;20377;-72
2023/01/31 06:53:01;;;;;;;21.08;2.78;;;3.10;97.40;;;;;;5023095;28;20030;-71
2023/01/31 06:55:27;;;;;;;14.70;2.38;;;3.10;97.30;;;;;;5027195;28;20445;-70
2023/01/31 06:57:54;;;;;;;19.30;2.42;;;3.10;97.30;;;;;;5023095;28;20396;-70
2023/01/31 07:00:20;;;;;;;14.27;2.40;;;3.10;97.20;;;;;;5014428;28;20026;-70
2023/01/31 07:02:46;;;;;;;18.90;2.20;;;3.20;97.10;;;;;;5022693;28;20522;-71
2023/01/31 07:05:11;;;;;;;14.38;2.22;;;3.20;97.20;;;;;;5020996;28;20030;-71
2023/01/31 07:07:37;;;;;;;17.60;2.83;;;3.20;97.10;;;;;;5030861;28;20104;-70
2023/01/31 07:10:03;;;;;;;19.65;2.80;;;3.20;97.10;;;;;;5015921;28;20037;-71
2023/01/31 07:12:28;;;;;;;16.45;2.38;;;3.20;97.00;;;;;;5022173;28;20045;-70
2023/01/31 07:14:53;;;;;;;9.80;2.00;;;3.30;97.00;;;;;;5026385;28;20045;-71
2023/01/31 07:17:22;;;;;;;19.45;2.60;;;3.30;96.90;;;;;;5032852;28;20531;-70
2023/01/31 07:19:47;;;;;;;20.40;2.47;;;3.20;96.80;;;;;;5023035;28;20042;-70
2023/01/31 07:22:13;;;;;;;10.40;2.70;;;3.20;97.00;;;;;;5024289;28;20037;-70
2023/01/31 07:24:38;;;;;;;18.33;2.88;;;3.20;97.10;;;;;;5021017;28;20054;-70
2023/01/31 07:27:04;;;;;;;21.27;3.13;;;3.30;97.00;;;;;;5028172;28;20025;-71
2023/01/31 07:29:29;;;;;;;18.45;2.83;;;3.40;97.00;;;;;;5021511;28;20360;-71
2023/01/31 07:31:55;;;;;;;17.48;3.58;;;3.30;97.00;;;;;;5024990;28;20032;-71
2023/01/31 07:34:21;;;;;;;14.52;3.00;;;3.40;96.90;;;;;;5029443;28;20069;-70
2023/01/31 07:36:48;;;;;;;17.80;3.70;;;3.40;96.80;;;;;;5027893;28;20037;-70
2023/01/31 07:39:13;;;;;;;17.70;3.60;;;3.40;96.80;;;;;;5025773;28;20033;-70
2023/01/31 07:41:39;;;;;;;15.15;3.80;;;3.40;96.80;;;;;;5026756;28;20104;-70
2023/01/31 07:44:07;;;;;;;20.38;4.35;;;3.40;96.80;;;;;;5024877;28;20121;-70
2023/01/31 07:46:33;;;;;;;20.30;4.63;;;3.50;96.80;;;;;;5021332;28;20026;-71
2023/01/31 07:48:58;;;;;;;18.00;4.35;;;3.50;96.80;;;;;;5021953;28;20030;-70
2023/01/31 07:51:24;;;;;;;18.40;4.38;;;3.60;96.70;;;;;;5026505;28;20029;-70
2023/01/31 07:53:49;;;;;;;24.13;5.03;;;3.60;96.70;;;;;;5025339;28;20036;-70
2023/01/31 07:56:17;;;;;;;15.27;4.05;;;3.60;96.70;;;;;;5021574;28;20087;-70
2023/01/31 07:58:44;;;;;;;14.80;4.35;;;3.60;96.80;;;;;;5020756;28;20045;-71
2023/01/31 08:03:59;;;;;;;19.50;5.18;;;3.60;96.90;;;;;;5023102;28;20551;-70
2023/01/31 08:06:27;;;;;;;23.17;4.80;;;3.60;97.00;;;;;;5023511;28;20070;-70
2023/01/31 08:08:53;;;;;;;21.80;5.05;;;3.60;97.00;;;;;;5021230;28;20037;-70
2023/01/31 08:11:18;;;;;;;16.65;4.72;;;3.70;96.90;;;;;;5020305;28;20044;-71
2023/01/31 08:13:44;;;;;;;19.85;5.05;;;3.70;96.90;;;;;;5019566;28;20057;-70
2023/01/31 08:16:10;;;;;;;17.35;5.57;;;3.70;96.90;;;;;;5019617;28;20042;-71
2023/01/31 08:18:36;;;;;;;20.48;5.22;;;3.80;96.70;;;;;;5024664;28;20029;-70
2023/01/31 08:21:02;;;;;;;15.95;5.13;;;3.80;96.80;;;;;;5027526;28;20087;-70
2023/01/31 08:23:29;;;;;;;25.55;5.53;;;3.80;96.80;;;;;;5023641;28;20081;-70
2023/01/31 08:26:02;;;;;;;15.15;4.10;;;3.80;96.60;;;;;;5022616;28;20026;-70
2023/01/31 08:28:27;;;;;;;25.40;5.68;;;3.80;96.70;;;;;;5019159;28;20061;-71
2023/01/31 08:30:53;;;;;;;17.65;4.40;;;3.80;96.70;;;;;;5018760;28;20123;-70
2023/01/31 08:33:18;;;;;;;20.15;5.15;;;3.90;96.80;;;;;;5025266;28;20045;-70
2023/01/31 08:35:44;;;;;;;25.55;5.15;;;3.90;96.50;;;;;;5023261;28;20427;-70
2023/01/31 08:38:09;;;;;;;26.83;5.22;;;3.90;96.60;;;;;;5020962;28;20100;-70
2023/01/31 08:40:35;;;;;;;21.42;5.50;;;4.00;96.50;;;;;;5020253;28;20083;-71
2023/01/31 08:43:00;;;;;;;13.77;4.20;;;4.00;96.40;;;;;;5023890;28;20510;-70
2023/01/31 08:45:27;;;;;;;21.63;4.68;;;4.00;96.40;;;;;;5021313;28;20042;-71
2023/01/31 08:47:57;;;;;;;17.10;5.15;;;4.00;96.30;;;;;;5017692;28;20033;-69
2023/01/31 08:50:24;;;;;;;22.63;5.05;;;4.10;96.20;;;;;;5018407;28;20091;-70
2023/01/31 08:52:59;;;;;;;22.45;5.50;;;4.10;96.10;;;;;;5022264;28;20374;-70
2023/01/31 08:55:24;;;;;;;20.48;5.65;;;4.10;96.10;;;;;;5024410;28;20428;-70
2023/01/31 08:57:51;;;;;;;19.80;5.13;;;4.10;96.30;;;;;;5023967;28;20038;-70
2023/01/31 09:00:18;;;;;;;19.60;5.55;;;4.20;96.60;;;;;;5024980;28;20029;-70
2023/01/31 09:02:45;;;;;;;19.48;5.05;;;4.20;96.40;;;;;;5023908;28;20487;-71
2023/01/31 09:05:11;;;;;;;20.38;5.88;;;4.20;96.50;;;;;;5022230;28;20037;-70
2023/01/31 09:07:37;;;;;;;23.38;6.60;;;4.10;96.60;;;;;;5027701;28;20077;-70
2023/01/31 09:10:03;;;;;;;26.60;6.50;;;4.10;96.90;;;;;;5021215;28;20030;-70
2023/01/31 09:12:28;;;;;;;18.88;6.45;;;4.10;97.40;;;;;;5019590;28;20398;-71
2023/01/31 09:14:54;;;;;;;18.17;7.35;;;4.10;97.60;;;;;;5027285;28;20041;-70
2023/01/31 09:17:19;;;;;;;21.40;6.10;;;4.10;97.80;;;;;;5024501;28;20033;-71
2023/01/31 09:19:47;;;;;;;16.40;6.50;;;4.10;97.90;;;;;;5021988;28;20418;-71
2023/01/31 09:22:12;;;;;;;17.40;6.68;;;4.00;98.00;;;;;;5021893;28;20030;-70
2023/01/31 09:24:38;;;;;;;26.63;7.28;;;4.00;98.00;;;;;;5021406;28;20051;-70
2023/01/31 09:27:04;;;;;;;22.90;8.07;;;4.00;98.30;;;;;;5039798;28;20021;-70
2023/01/31 09:29:29;;;;;;;23.45;7.32;;;4.00;98.30;;;;;;5027248;28;20498;-71
2023/01/31 09:31:55;;;;;;;24.23;7.90;;;4.10;98.50;;;;;;5030568;28;20139;-71
2023/01/31 09:34:21;;;;;;;18.58;7.00;;;4.00;98.60;;;;;;5026840;28;20394;-71
2023/01/31 09:36:46;;;;;;;21.60;7.47;;;4.10;98.80;;;;;;5022760;28;20040;-70
2023/01/31 09:39:12;;;;;;;22.20;7.78;;;4.10;99.00;;;;;;5017329;28;20231;-70
2023/01/31 09:41:52;;;;;;;19.10;8.75;;;4.10;99.10;;;;;;5019890;28;20022;-71
2023/01/31 09:44:24;;;;;;;24.98;8.90;;;4.10;99.30;;;;;;5019265;28;20466;-71
2023/01/31 09:47:12;;;;;;;21.33;8.57;;;4.10;99.40;;;;;;5015927;28;20521;-71
2023/01/31 09:49:47;;;;;;;21.55;8.73;;;4.10;99.50;;;;;;5019700;28;20045;-70
2023/01/31 09:52:13;;;;;;;26.42;8.52;;;4.10;99.60;;;;;;5019112;28;20037;-71
2023/01/31 09:54:40;;;;;;;23.20;9.50;;;4.10;99.60;;;;;;5021872;28;20220;-71
2023/01/31 09:57:16;;;;;;;28.17;9.70;;;4.10;99.70;;;;;;5025032;28;20068;-71
2023/01/31 09:59:58;;;;;;;22.38;9.38;;;4.10;99.80;;;;;;5027435;28;20045;-71
2023/01/31 10:02:27;;;;;;;30.48;9.63;;;4.10;99.80;;;;;;5019500;28;20405;-71
2023/01/31 10:05:05;;;;;;;28.33;10.77;;;4.20;99.80;;;;;;5024368;28;20029;-71
2023/01/31 10:08:07;;;;;;;26.02;9.80;;;4.20;99.80;;;;;;5026780;28;20358;-70
2023/01/31 10:10:38;;;;;;;28.45;10.27;;;4.20;99.90;;;;;;5022801;28;20022;-71
2023/01/31 10:13:16;;;;;;;36.13;11.20;;;4.20;99.90;;;;;;5026784;28;20032;-71
2023/01/31 10:15:52;;;;;;;29.45;11.57;;;4.20;99.90;;;;;;5027702;28;20367;-71
2023/01/31 10:18:28;;;;;;;24.38;10.45;;;4.20;99.90;;;;;;5022177;28;20480;-71
2023/01/31 10:21:00;;;;;;;25.52;10.80;;;4.20;99.90;;;;;;5027109;28;20455;-70
2023/01/31 10:23:33;;;;;;;25.13;11.88;;;4.30;99.90;;;;;;5027444;28;20046;-71
2023/01/31 10:26:05;;;;;;;29.95;11.20;;;4.30;99.90;;;;;;5022332;28;20030;-71
2023/01/31 10:28:49;;;;;;;31.15;10.35;;;4.30;99.90;;;;;;5032844;28;20025;-70
2023/01/31 10:31:34;;;;;;;34.75;12.75;;;4.30;99.90;;;;;;5033442;28;20030;-70
2023/01/31 10:34:11;;;;;;;31.17;11.45;;;4.30;99.90;;;;;;5023544;28;20454;-69
2023/01/31 10:36:43;;;;;;;22.63;10.68;;;4.40;99.90;;;;;;5025844;28;20107;-70
2023/01/31 10:39:44;;;;;;;25.52;12.18;;;4.40;99.90;;;;;;5027567;28;20449;-70
2023/01/31 10:42:30;;;;;;;27.83;12.65;;;4.40;99.90;;;;;;5020553;28;20037;-70
2023/01/31 10:45:14;;;;;;;30.15;12.52;;;4.50;99.90;;;;;;5026809;28;20140;-70
2023/01/31 10:48:00;;;;;;;36.47;13.63;;;4.50;99.90;;;;;;5026015;28;20033;-70
2023/01/31 10:50:37;;;;;;;33.40;12.35;;;4.50;99.90;;;;;;5032828;28;20508;-70
2023/01/31 10:53:24;;;;;;;23.20;12.27;;;4.60;99.90;;;;;;5013492;28;20038;-70
2023/01/31 10:56:10;;;;;;;28.88;12.27;;;4.60;99.90;;;;;;5024713;28;20128;-70
2023/01/31 10:58:37;;;;;;;34.00;12.18;;;4.60;99.90;;;;;;5026952;28;20079;-70
2023/01/31 11:01:07;;;;;;;31.80;14.50;;;4.60;99.90;;;;;;5020383;28;20084;-70
2023/01/31 11:03:33;;;;;;;33.15;13.15;;;4.60;99.90;;;;;;5025912;28;20036;-70
2023/01/31 11:06:00;;;;;;;32.35;13.75;;;4.70;99.90;;;;;;5021938;28;20041;-70
2023/01/31 11:08:32;;;;;;;29.65;13.35;;;4.70;99.90;;;;;;5022628;28;20506;-70
2023/01/31 11:11:03;;;;;;;38.58;13.60;;;4.70;99.90;;;;;;5021480;28;20083;-71
2023/01/31 11:13:29;;;;;;;25.75;13.80;;;4.70;99.90;;;;;;5027324;28;20037;-71
2023/01/31 11:15:55;;;;;;;26.20;13.18;;;4.70;99.90;;;;;;5022069;28;20482;-70
2023/01/31 11:18:33;;;;;;;30.15;13.65;;;4.80;99.90;;;;;;5022837;28;20073;-70
2023/01/31 11:21:00;;;;;;;18.45;12.05;;;4.80;99.90;;;;;;5020791;28;20099;-70
2023/01/31 11:23:30;;;;;;;26.83;11.98;;;4.90;99.90;;;;;;5025524;28;20049;-70
2023/01/31 11:25:56;;;;;;;34.40;13.32;;;4.90;99.90;;;;;;5025043;28;20029;-70
2023/01/31 11:28:33;;;;;;;22.05;11.02;;;4.90;99.90;;;;;;5024637;28;20108;-70
2023/01/31 11:30:59;;;;;;;30.70;13.65;;;4.90;99.90;;;;;;5014239;28;20036;-71
2023/01/31 11:33:47;;;;;;;27.92;13.05;;;4.90;99.90;;;;;;5020195;28;20041;-70
2023/01/31 11:36:25;;;;;;;21.13;9.30;;;4.90;99.90;;;;;;5021961;28;20042;-70
2023/01/31 11:38:52;;;;;;;25.38;12.90;;;5.00;99.90;;;;;;5024249;28;20069;-71
2023/01/31 11:41:34;;;;;;;20.95;12.77;;;5.00;99.90;;;;;;5027690;28;20454;-70
2023/01/31 11:44:17;;;;;;;19.00;9.57;;;5.00;99.90;;;;;;5028287;28;20106;-70
2023/01/31 11:46:54;;;;;;;25.83;10.68;;;5.00;99.90;;;;;;5021776;28;20523;-70
2023/01/31 11:49:32;;;;;;;19.25;11.77;;;5.10;99.90;;;;;;5027184;28;20038;-70
2023/01/31 11:52:36;;;;;;;28.27;11.60;;;5.10;99.90;;;;;;5021424;28;20033;-70
2023/01/31 11:55:07;;;;;;;25.67;11.13;;;5.10;99.90;;;;;;5011308;28;20048;-71
2023/01/31 11:57:38;;;;;;;20.60;11.05;;;5.10;99.90;;;;;;5020059;28;20043;-70
2023/01/31 12:00:17;;;;;;;21.48;10.63;;;5.10;99.90;;;;;;5024804;28;20037;-70
2023/01/31 12:02:42;;;;;;;20.42;9.40;;;5.10;99.90;;;;;;5025186;28;20029;-70
2023/01/31 12:05:16;;;;;;;18.17;10.10;;;5.10;99.90;;;;;;5022937;28;20080;-71
2023/01/31 12:07:52;;;;;;;15.73;9.40;;;5.20;99.90;;;;;;5024075;28;20489;-70
2023/01/31 12:10:31;;;;;;;19.52;10.35;;;5.30;99.90;;;;;;5027056;28;20029;-70
2023/01/31 12:13:22;;;;;;;21.63;10.48;;;5.20;99.90;;;;;;5020720;28;20504;-71
2023/01/31 12:15:55;;;;;;;22.38;10.63;;;5.30;99.90;;;;;;5022332;28;20057;-71
2023/01/31 12:18:37;;;;;;;15.38;9.13;;;5.30;99.90;;;;;;5026294;28;20032;-71
2023/01/31 12:21:08;;;;;;;15.38;8.80;;;5.30;99.90;;;;;;5014551;28;20476;-70
2023/01/31 12:23:55;;;;;;;17.10;9.07;;;5.30;99.90;;;;;;5021563;28;20512;-71
2023/01/31 12:26:55;;;;;;;14.68;8.65;;;5.40;99.90;;;;;;5020320;28;20120;-71
2023/01/31 12:29:58;;;;;;;12.57;7.78;;;5.40;99.90;;;;;;5025905;28;20120;-70
2023/01/31 12:32:29;;;;;;;17.17;7.63;;;5.40;99.90;;;;;;5028231;28;20181;-71
2023/01/31 12:35:12;;;;;;;;;;;5.40;99.90;;;;;;5027841;28;21375;-71
2023/01/31 12:37:52;;;;;;;11.02;6.53;;;5.40;99.90;;;;;;5026057;28;19909;-71
2023/01/31 12:40:27;;;;;;;13.25;6.80;;;5.50;99.90;;;;;;5021714;28;20033;-71
2023/01/31 12:42:59;;;;;;;17.30;5.97;;;5.50;99.90;;;;;;5024447;28;20041;-71
2023/01/31 12:46:05;;;;;;;10.57;5.22;;;5.60;99.90;;;;;;5023423;28;20041;-71
2023/01/31 12:48:49;;;;;;;14.50;5.78;;;5.60;99.90;;;;;;5022631;28;20025;-71
2023/01/31 12:51:36;;;;;;;10.00;5.13;;;5.60;99.90;;;;;;5027103;28;20041;-71
2023/01/31 12:54:21;;;;;;;11.45;4.60;;;5.60;99.90;;;;;;5026219;28;20034;-71
2023/01/31 12:57:05;;;;;;;7.65;3.97;;;5.70;99.90;;;;;;5021852;28;20515;-70
2023/01/31 13:00:10;;;;;;;7.85;4.22;;;5.70;99.90;;;;;;5024774;28;20037;-71
2023/01/31 13:02:48;;;;;;;8.10;3.38;;;5.70;99.90;;;;;;5027433;28;20033;-71
2023/01/31 13:05:24;;;;;;;8.93;3.33;;;5.70;99.90;;;;;;5026145;28;20080;-71
2023/01/31 13:07:57;;;;;;;6.30;3.38;;;5.70;99.90;;;;;;5023012;28;20045;-71
2023/01/31 13:10:39;;;;;;;8.35;3.50;;;5.70;99.90;;;;;;5021906;28;20105;-71
2023/01/31 13:13:15;;;;;;;6.78;3.28;;;5.70;99.90;;;;;;5022353;28;20570;-71
2023/01/31 13:15:51;;;;;;;6.50;3.08;;;5.80;99.90;;;;;;5021858;28;20033;-71